createdAt,value
2019-02-04T00:00:38.460Z,1010.64
2019-02-04T00:01:38.446Z,1010.58
2019-02-04T00:02:38.438Z,1010.63
2019-02-04T00:03:38.452Z,1010.62
2019-02-04T00:04:38.419Z,1010.64
2019-02-04T00:05:38.400Z,1010.59
2019-02-04T00:06:38.396Z,1010.61
2019-02-04T00:07:38.392Z,1010.55
2019-02-04T00:08:38.370Z,1010.56
2019-02-04T00:09:38.387Z,1010.56
2019-02-04T00:10:38.354Z,1010.59
2019-02-04T00:11:38.341Z,1010.55
2019-02-04T00:12:38.335Z,1010.54
2019-02-04T00:13:38.337Z,1010.56
2019-02-04T00:14:38.328Z,1010.52
2019-02-04T00:15:38.303Z,1010.52
2019-02-04T00:16:40.783Z,1010.60
2019-02-04T00:17:38.286Z,1010.60
2019-02-04T00:18:38.268Z,1010.53
2019-02-04T00:19:38.272Z,1010.57
2019-02-04T00:20:38.241Z,1010.60
2019-02-04T00:21:38.239Z,1010.62
2019-02-04T00:22:38.224Z,1010.59
2019-02-04T00:23:38.213Z,1010.60
2019-02-04T00:24:38.223Z,1010.56
2019-02-04T00:25:38.189Z,1010.61
2019-02-04T00:26:38.179Z,1010.61
2019-02-04T00:27:38.168Z,1010.56
2019-02-04T00:28:38.156Z,1010.57
2019-02-04T00:29:38.172Z,1010.58
2019-02-04T00:30:38.139Z,1010.60
2019-02-04T00:31:38.129Z,1010.61
2019-02-04T00:32:38.121Z,1010.64
2019-02-04T00:33:38.105Z,1010.60
2019-02-04T00:34:38.113Z,1010.66
2019-02-04T00:35:38.105Z,1010.63
2019-02-04T00:36:38.078Z,1010.67
2019-02-04T00:37:38.059Z,1010.66
2019-02-04T00:38:38.065Z,1010.66
2019-02-04T00:39:38.047Z,1010.70
2019-02-04T00:40:38.049Z,1010.63
2019-02-04T00:41:38.044Z,1010.69
2019-02-04T00:42:38.010Z,1010.67
2019-02-04T00:43:38.092Z,1010.69
2019-02-04T00:44:37.991Z,1010.69
2019-02-04T00:45:37.992Z,1010.71
2019-02-04T00:46:37.964Z,1010.73
2019-02-04T00:47:37.957Z,1010.74
2019-02-04T00:48:37.942Z,1010.76
2019-02-04T00:49:37.937Z,1010.78
2019-02-04T00:50:37.941Z,1010.75
2019-02-04T00:51:37.918Z,1010.73
2019-02-04T00:52:37.898Z,1010.75
2019-02-04T00:53:37.897Z,1010.73
2019-02-04T00:54:37.894Z,1010.74
2019-02-04T00:55:37.892Z,1010.76
2019-02-04T00:56:37.862Z,1010.74
2019-02-04T00:57:37.844Z,1010.79
2019-02-04T00:58:37.839Z,1010.79
2019-02-04T00:59:37.826Z,1010.83
2019-02-04T01:00:37.830Z,1010.83
2019-02-04T01:01:37.812Z,1010.82
2019-02-04T01:02:37.796Z,1010.90
2019-02-04T01:03:37.786Z,1010.85
2019-02-04T01:04:37.780Z,1010.89
2019-02-04T01:05:37.777Z,1010.92
2019-02-04T01:06:37.756Z,1010.87
2019-02-04T01:07:37.745Z,1010.90
2019-02-04T01:08:37.735Z,1010.86
2019-02-04T01:09:37.721Z,1010.85
2019-02-04T01:10:37.732Z,1010.86
2019-02-04T01:11:37.699Z,1010.93
2019-02-04T01:12:37.685Z,1010.92
2019-02-04T01:13:37.681Z,1010.96
2019-02-04T01:14:37.669Z,1010.97
2019-02-04T01:15:37.684Z,1010.97
2019-02-04T01:16:37.650Z,1010.99
2019-02-04T01:17:37.634Z,1011.03
2019-02-04T01:18:37.624Z,1011.05
2019-02-04T01:19:37.613Z,1011.02
2019-02-04T01:20:37.604Z,1011.11
2019-02-04T01:21:37.614Z,1011.11
2019-02-04T01:22:37.586Z,1011.08
2019-02-04T01:23:37.569Z,1011.15
2019-02-04T01:24:37.557Z,1011.13
2019-02-04T01:25:37.559Z,1011.14
2019-02-04T01:26:37.562Z,1011.19
2019-02-04T01:27:37.529Z,1011.26
2019-02-04T01:28:37.524Z,1011.19
2019-02-04T01:29:37.505Z,1011.27
2019-02-04T01:30:37.496Z,1011.19
2019-02-04T01:31:37.503Z,1011.19
2019-02-04T01:32:37.470Z,1011.20
2019-02-04T01:33:37.467Z,1011.23
2019-02-04T01:34:37.456Z,1011.22
2019-02-04T01:35:37.442Z,1011.22
2019-02-04T01:36:37.452Z,1011.26
2019-02-04T01:37:37.417Z,1011.30
2019-02-04T01:38:37.409Z,1011.20
2019-02-04T01:39:37.412Z,1011.25
2019-02-04T01:40:37.391Z,1011.30
2019-02-04T01:41:37.390Z,1011.26
2019-02-04T01:42:37.384Z,1011.24
2019-02-04T01:43:37.354Z,1011.29
2019-02-04T01:44:37.342Z,1011.29
2019-02-04T01:45:37.339Z,1011.30
2019-02-04T01:46:37.325Z,1011.30
2019-02-04T01:47:37.333Z,1011.22
2019-02-04T01:48:37.306Z,1011.26
2019-02-04T01:49:37.297Z,1011.26
2019-02-04T01:50:37.276Z,1011.31
2019-02-04T01:51:37.266Z,1011.31
2019-02-04T01:52:37.275Z,1011.35
2019-02-04T01:53:37.251Z,1011.35
2019-02-04T01:54:37.241Z,1011.31
2019-02-04T01:55:37.225Z,1011.37
2019-02-04T01:56:37.239Z,1011.37
2019-02-04T01:57:37.222Z,1011.38
2019-02-04T01:58:37.198Z,1011.33
2019-02-04T01:59:37.189Z,1011.35
2019-02-04T02:00:37.177Z,1011.33
2019-02-04T02:01:37.172Z,1011.36
2019-02-04T02:02:37.175Z,1011.29
2019-02-04T02:03:37.138Z,1011.30
2019-02-04T02:04:37.131Z,1011.28
2019-02-04T02:05:37.122Z,1011.27
2019-02-04T02:06:37.135Z,1011.19
2019-02-04T02:07:37.102Z,1011.19
2019-02-04T02:08:37.099Z,1011.20
2019-02-04T02:09:37.076Z,1011.19
2019-02-04T02:10:37.065Z,1011.17
2019-02-04T02:11:37.061Z,1011.18
2019-02-04T02:12:37.062Z,1011.13
2019-02-04T02:13:37.033Z,1011.16
2019-02-04T02:14:37.020Z,1011.20
2019-02-04T02:15:37.009Z,1011.20
2019-02-04T02:16:37.002Z,1011.21
2019-02-04T02:17:37.019Z,1011.22
2019-02-04T02:18:36.989Z,1011.23
2019-02-04T02:19:36.973Z,1011.21
2019-02-04T02:20:36.961Z,1011.25
2019-02-04T02:21:36.948Z,1011.31
2019-02-04T02:22:36.936Z,1011.32
2019-02-04T02:23:36.956Z,1011.27
2019-02-04T02:24:36.916Z,1011.26
2019-02-04T02:25:36.907Z,1011.29
2019-02-04T02:26:36.900Z,1011.28
2019-02-04T02:27:36.882Z,1011.29
2019-02-04T02:28:36.894Z,1011.26
2019-02-04T02:29:36.865Z,1011.23
2019-02-04T02:30:36.858Z,1011.20
2019-02-04T02:31:36.844Z,1011.22
2019-02-04T02:32:36.833Z,1011.20
2019-02-04T02:33:36.844Z,1011.23
2019-02-04T02:34:36.810Z,1011.21
2019-02-04T02:35:36.802Z,1011.14
2019-02-04T02:36:36.787Z,1011.13
2019-02-04T02:37:36.783Z,1011.12
2019-02-04T02:38:36.772Z,1011.13
2019-02-04T02:39:36.779Z,1011.13
2019-02-04T02:40:36.757Z,1011.14
2019-02-04T02:41:36.733Z,1011.14
2019-02-04T02:42:36.767Z,1011.13
2019-02-04T02:43:36.723Z,1011.20
2019-02-04T02:44:36.704Z,1011.18
2019-02-04T02:45:36.690Z,1011.18
2019-02-04T02:46:36.677Z,1011.16
2019-02-04T02:47:38.408Z,1011.15
2019-02-04T02:48:36.710Z,1011.13
2019-02-04T02:49:36.668Z,1011.10
2019-02-04T02:50:36.636Z,1011.09
2019-02-04T02:51:36.627Z,1011.09
2019-02-04T02:52:36.612Z,1011.08
2019-02-04T02:53:36.629Z,1011.10
2019-02-04T02:54:36.616Z,1011.13
2019-02-04T02:55:36.594Z,1011.14
2019-02-04T02:56:36.577Z,1011.16
2019-02-04T02:57:36.586Z,1011.14
2019-02-04T02:58:36.550Z,1011.22
2019-02-04T02:59:36.558Z,1011.18
2019-02-04T03:00:36.533Z,1011.19
2019-02-04T03:01:36.514Z,1011.22
2019-02-04T03:02:36.507Z,1011.15
2019-02-04T03:03:36.515Z,1011.17
2019-02-04T03:04:36.483Z,1011.17
2019-02-04T03:05:36.496Z,1011.18
2019-02-04T03:06:36.466Z,1011.12
2019-02-04T03:07:36.463Z,1011.16
2019-02-04T03:08:36.448Z,1011.18
2019-02-04T03:09:36.479Z,1011.13
2019-02-04T03:10:36.425Z,1011.20
2019-02-04T03:11:36.411Z,1011.25
2019-02-04T03:12:36.409Z,1011.26
2019-02-04T03:13:36.395Z,1011.26
2019-02-04T03:14:36.380Z,1011.26
2019-02-04T03:15:36.382Z,1011.29
2019-02-04T03:16:36.357Z,1011.30
2019-02-04T03:17:36.351Z,1011.27
2019-02-04T03:18:36.351Z,1011.25
2019-02-04T03:19:36.330Z,1011.26
2019-02-04T03:20:36.343Z,1011.28
2019-02-04T03:21:36.298Z,1011.32
2019-02-04T03:22:36.292Z,1011.21
2019-02-04T03:23:36.286Z,1011.31
2019-02-04T03:24:36.266Z,1011.31
2019-02-04T03:25:36.262Z,1011.34
2019-02-04T03:26:36.283Z,1011.34
2019-02-04T03:27:36.238Z,1011.37
2019-02-04T03:28:36.248Z,1011.37
2019-02-04T03:29:36.213Z,1011.37
2019-02-04T03:30:36.210Z,1011.37
2019-02-04T03:31:39.252Z,1011.37
2019-02-04T03:32:37.192Z,1011.35
2019-02-04T03:33:36.170Z,1011.40
2019-02-04T03:34:36.165Z,1011.40
2019-02-04T03:35:36.150Z,1011.35
2019-02-04T03:36:36.153Z,1011.34
2019-02-04T03:37:36.133Z,1011.33
2019-02-04T03:38:36.117Z,1011.36
2019-02-04T03:39:36.125Z,1011.33
2019-02-04T03:40:36.099Z,1011.41
2019-02-04T03:41:36.100Z,1011.38
2019-02-04T03:42:36.073Z,1011.39
2019-02-04T03:43:36.062Z,1011.38
2019-02-04T03:44:36.071Z,1011.43
2019-02-04T03:45:36.064Z,1011.43
2019-02-04T03:46:36.033Z,1011.40
2019-02-04T03:47:36.018Z,1011.49
2019-02-04T03:48:36.009Z,1011.49
2019-02-04T03:49:36.018Z,1011.52
2019-02-04T03:50:35.987Z,1011.48
2019-02-04T03:51:35.977Z,1011.52
2019-02-04T03:52:35.970Z,1011.49
2019-02-04T03:53:35.952Z,1011.49
2019-02-04T03:54:35.964Z,1011.46
2019-02-04T03:55:35.931Z,1011.46
2019-02-04T03:56:35.918Z,1011.44
2019-02-04T03:57:35.917Z,1011.47
2019-02-04T03:58:35.914Z,1011.51
2019-02-04T03:59:35.963Z,1011.47
2019-02-04T04:00:35.884Z,1011.51
2019-02-04T04:01:35.866Z,1011.52
2019-02-04T04:02:35.858Z,1011.49
2019-02-04T04:03:35.847Z,1011.51
2019-02-04T04:04:35.856Z,1011.53
2019-02-04T04:05:35.823Z,1011.49
2019-02-04T04:06:35.815Z,1011.48
2019-02-04T04:07:35.801Z,1011.43
2019-02-04T04:08:35.793Z,1011.46
2019-02-04T04:09:35.816Z,1011.44
2019-02-04T04:10:35.771Z,1011.48
2019-02-04T04:11:35.762Z,1011.49
2019-02-04T04:12:35.751Z,1011.50
2019-02-04T04:13:35.752Z,1011.50
2019-02-04T04:14:35.728Z,1011.49
2019-02-04T04:15:35.735Z,1011.47
2019-02-04T04:16:35.706Z,1011.47
2019-02-04T04:17:35.699Z,1011.48
2019-02-04T04:18:35.684Z,1011.51
2019-02-04T04:19:35.671Z,1011.50
2019-02-04T04:20:35.676Z,1011.51
2019-02-04T04:21:35.671Z,1011.47
2019-02-04T04:22:35.643Z,1011.48
2019-02-04T04:23:35.631Z,1011.47
2019-02-04T04:24:35.623Z,1011.48
2019-02-04T04:25:35.621Z,1011.49
2019-02-04T04:26:35.596Z,1011.48
2019-02-04T04:27:35.586Z,1011.46
2019-02-04T04:28:35.580Z,1011.48
2019-02-04T04:29:35.568Z,1011.45
2019-02-04T04:30:35.572Z,1011.45
2019-02-04T04:31:35.544Z,1011.40
2019-02-04T04:32:35.536Z,1011.46
2019-02-04T04:33:35.538Z,1011.43
2019-02-04T04:34:35.512Z,1011.44
2019-02-04T04:35:35.502Z,1011.45
2019-02-04T04:36:35.492Z,1011.42
2019-02-04T04:37:35.477Z,1011.44
2019-02-04T04:38:35.483Z,1011.47
2019-02-04T04:39:35.456Z,1011.49
2019-02-04T04:40:35.460Z,1011.52
2019-02-04T04:41:35.439Z,1011.54
2019-02-04T04:42:35.427Z,1011.49
2019-02-04T04:43:35.414Z,1011.49
2019-02-04T04:44:35.405Z,1011.50
2019-02-04T04:45:35.410Z,1011.51
2019-02-04T04:46:35.382Z,1011.42
2019-02-04T04:47:35.373Z,1011.43
2019-02-04T04:48:35.355Z,1011.38
2019-02-04T04:49:35.354Z,1011.40
2019-02-04T04:50:35.366Z,1011.36
2019-02-04T04:51:35.328Z,1011.38
2019-02-04T04:52:35.313Z,1011.36
2019-02-04T04:53:35.310Z,1011.36
2019-02-04T04:54:35.297Z,1011.34
2019-02-04T04:55:35.309Z,1011.34
2019-02-04T04:56:35.276Z,1011.36
2019-02-04T04:57:35.259Z,1011.34
2019-02-04T04:58:35.250Z,1011.36
2019-02-04T04:59:35.239Z,1011.31
2019-02-04T05:00:35.227Z,1011.34
2019-02-04T05:01:35.239Z,1011.33
2019-02-04T05:02:35.210Z,1011.33
2019-02-04T05:03:35.201Z,1011.31
2019-02-04T05:04:35.189Z,1011.29
2019-02-04T05:05:35.190Z,1011.31
2019-02-04T05:06:35.164Z,1011.27
2019-02-04T05:07:35.173Z,1011.25
2019-02-04T05:08:35.147Z,1011.27
2019-02-04T05:09:35.128Z,1011.29
2019-02-04T05:10:35.145Z,1011.30
2019-02-04T05:11:35.113Z,1011.30
2019-02-04T05:12:35.096Z,1011.31
2019-02-04T05:13:35.092Z,1011.30
2019-02-04T05:14:35.080Z,1011.26
2019-02-04T05:15:35.096Z,1011.28
2019-02-04T05:16:35.061Z,1011.26
2019-02-04T05:17:35.043Z,1011.19
2019-02-04T05:18:38.148Z,1011.20
2019-02-04T05:19:35.023Z,1011.20
2019-02-04T05:20:35.017Z,1011.23
2019-02-04T05:21:35.027Z,1011.24
2019-02-04T05:22:34.993Z,1011.18
2019-02-04T05:23:34.983Z,1011.18
2019-02-04T05:24:34.968Z,1011.19
2019-02-04T05:25:34.996Z,1011.17
2019-02-04T05:26:34.961Z,1011.19
2019-02-04T05:27:34.940Z,1011.18
2019-02-04T05:28:34.931Z,1011.18
2019-02-04T05:29:34.914Z,1011.18
2019-02-04T05:30:34.908Z,1011.22
2019-02-04T05:31:34.918Z,1011.20
2019-02-04T05:32:34.885Z,1011.22
2019-02-04T05:33:34.879Z,1011.19
2019-02-04T05:34:34.865Z,1011.16
2019-02-04T05:35:34.856Z,1011.28
2019-02-04T05:36:34.863Z,1011.20
2019-02-04T05:37:34.829Z,1011.21
2019-02-04T05:38:34.820Z,1011.22
2019-02-04T05:39:34.812Z,1011.25
2019-02-04T05:40:34.806Z,1011.21
2019-02-04T05:41:34.814Z,1011.24
2019-02-04T05:42:34.820Z,1011.19
2019-02-04T05:43:34.767Z,1011.20
2019-02-04T05:44:34.754Z,1011.26
2019-02-04T05:45:34.753Z,1011.27
2019-02-04T05:46:34.738Z,1011.28
2019-02-04T05:47:34.744Z,1011.26
2019-02-04T05:48:34.719Z,1011.30
2019-02-04T05:49:34.721Z,1011.27
2019-02-04T05:50:34.692Z,1011.26
2019-02-04T05:51:34.682Z,1011.21
2019-02-04T05:52:34.688Z,1011.22
2019-02-04T05:53:34.664Z,1011.23
2019-02-04T05:54:34.665Z,1011.23
2019-02-04T05:55:34.638Z,1011.20
2019-02-04T05:56:34.625Z,1011.19
2019-02-04T05:57:34.639Z,1011.22
2019-02-04T05:58:34.611Z,1011.20
2019-02-04T05:59:34.598Z,1011.24
2019-02-04T06:00:34.606Z,1011.27
2019-02-04T06:01:34.572Z,1011.32
2019-02-04T06:02:34.582Z,1011.38
2019-02-04T06:03:34.572Z,1011.35
2019-02-04T06:04:34.544Z,1011.38
2019-02-04T06:05:34.536Z,1011.42
2019-02-04T06:06:34.548Z,1011.40
2019-02-04T06:07:34.533Z,1011.38
2019-02-04T06:08:34.500Z,1011.38
2019-02-04T06:09:34.487Z,1011.42
2019-02-04T06:10:34.474Z,1011.40
2019-02-04T06:11:34.470Z,1011.41
2019-02-04T06:12:35.090Z,1011.46
2019-02-04T06:13:34.447Z,1011.51
2019-02-04T06:14:34.433Z,1011.51
2019-02-04T06:15:34.421Z,1011.52
2019-02-04T06:16:34.412Z,1011.53
2019-02-04T06:17:34.432Z,1011.48
2019-02-04T06:18:34.396Z,1011.60
2019-02-04T06:19:34.386Z,1011.58
2019-02-04T06:20:34.374Z,1011.59
2019-02-04T06:21:34.360Z,1011.58
2019-02-04T06:22:34.349Z,1011.57
2019-02-04T06:23:34.359Z,1011.57
2019-02-04T06:24:34.327Z,1011.57
2019-02-04T06:25:34.319Z,1011.55
2019-02-04T06:26:34.310Z,1011.62
2019-02-04T06:27:34.297Z,1011.58
2019-02-04T06:28:34.301Z,1011.54
2019-02-04T06:29:34.276Z,1011.57
2019-02-04T06:30:34.274Z,1011.54
2019-02-04T06:31:34.257Z,1011.57
2019-02-04T06:32:34.762Z,1011.55
2019-02-04T06:33:34.247Z,1011.53
2019-02-04T06:34:34.246Z,1011.56
2019-02-04T06:35:34.207Z,1011.54
2019-02-04T06:36:34.205Z,1011.49
2019-02-04T06:37:34.193Z,1011.51
2019-02-04T06:38:34.230Z,1011.50
2019-02-04T06:39:34.268Z,1011.49
2019-02-04T06:40:34.165Z,1011.48
2019-02-04T06:41:34.144Z,1011.48
2019-02-04T06:42:34.134Z,1011.50
2019-02-04T06:43:34.145Z,1011.50
2019-02-04T06:44:34.114Z,1011.50
2019-02-04T06:45:34.101Z,1011.48
2019-02-04T06:46:34.089Z,1011.47
2019-02-04T06:47:34.080Z,1011.45
2019-02-04T06:48:34.088Z,1011.46
2019-02-04T06:49:34.060Z,1011.46
2019-02-04T06:50:34.076Z,1011.49
2019-02-04T06:51:34.044Z,1011.46
2019-02-04T06:52:34.031Z,1011.49
2019-02-04T06:53:34.016Z,1011.45
2019-02-04T06:54:34.007Z,1011.47
2019-02-04T06:55:34.013Z,1011.43
2019-02-04T06:56:35.928Z,1011.47
2019-02-04T06:57:33.988Z,1011.51
2019-02-04T06:58:33.984Z,1011.50
2019-02-04T06:59:33.949Z,1011.51
2019-02-04T07:00:33.945Z,1011.48
2019-02-04T07:01:33.932Z,1011.48
2019-02-04T07:02:33.924Z,1011.43
2019-02-04T07:03:33.931Z,1011.42
2019-02-04T07:04:33.903Z,1011.42
2019-02-04T07:05:43.414Z,1011.44
2019-02-04T07:06:34.872Z,1011.40
2019-02-04T07:07:33.863Z,1011.40
2019-02-04T07:08:33.874Z,1011.41
2019-02-04T07:09:33.872Z,1011.41
2019-02-04T07:10:33.841Z,1011.36
2019-02-04T07:11:33.827Z,1011.42
2019-02-04T07:12:33.812Z,1011.39
2019-02-04T07:13:33.891Z,1011.42
2019-02-04T07:14:33.828Z,1011.37
2019-02-04T07:15:33.817Z,1011.40
2019-02-04T07:16:33.773Z,1011.41
2019-02-04T07:17:33.779Z,1011.40
2019-02-04T07:18:33.751Z,1011.40
2019-02-04T07:19:33.788Z,1011.42
2019-02-04T07:20:33.723Z,1011.35
2019-02-04T07:21:33.732Z,1011.33
2019-02-04T07:22:33.706Z,1011.36
2019-02-04T07:23:33.703Z,1011.31
2019-02-04T07:24:42.816Z,1011.37
2019-02-04T07:25:34.668Z,1011.37
2019-02-04T07:26:33.678Z,1011.33
2019-02-04T07:27:33.648Z,1011.36
2019-02-04T07:28:33.639Z,1011.36
2019-02-04T07:29:33.630Z,1011.32
2019-02-04T07:30:33.622Z,1011.33
2019-02-04T07:31:33.602Z,1011.31
2019-02-04T07:32:33.619Z,1011.35
2019-02-04T07:33:33.590Z,1011.28
2019-02-04T07:34:33.577Z,1011.30
2019-02-04T07:35:33.566Z,1011.39
2019-02-04T07:36:33.553Z,1011.32
2019-02-04T07:37:33.541Z,1011.33
2019-02-04T07:38:33.560Z,1011.32
2019-02-04T07:39:33.556Z,1011.31
2019-02-04T07:40:33.515Z,1011.31
2019-02-04T07:41:33.498Z,1011.32
2019-02-04T07:42:33.490Z,1011.32
2019-02-04T07:43:33.501Z,1011.31
2019-02-04T07:44:33.485Z,1011.24
2019-02-04T07:45:33.456Z,1011.28
2019-02-04T07:46:33.440Z,1011.20
2019-02-04T07:47:33.438Z,1011.29
2019-02-04T07:48:33.424Z,1011.26
2019-02-04T07:49:35.300Z,1011.26
2019-02-04T07:50:33.398Z,1011.27
2019-02-04T07:51:33.386Z,1011.28
2019-02-04T07:52:33.381Z,1011.25
2019-02-04T07:53:33.369Z,1011.27
2019-02-04T07:54:33.360Z,1011.27
2019-02-04T07:55:33.370Z,1011.22
2019-02-04T07:56:33.340Z,1011.19
2019-02-04T07:57:33.322Z,1011.16
2019-02-04T07:58:33.312Z,1011.17
2019-02-04T07:59:33.329Z,1011.14
2019-02-04T08:00:33.333Z,1011.16
2019-02-04T08:01:33.393Z,1011.13
2019-02-04T08:02:33.290Z,1011.14
2019-02-04T08:03:33.256Z,1011.13
2019-02-04T08:04:33.264Z,1011.13
2019-02-04T08:05:33.261Z,1011.11
2019-02-04T08:06:33.235Z,1011.13
2019-02-04T08:07:33.220Z,1011.12
2019-02-04T08:08:33.226Z,1011.12
2019-02-04T08:09:33.193Z,1011.14
2019-02-04T08:10:33.207Z,1011.08
2019-02-04T08:11:33.170Z,1011.07
2019-02-04T08:12:33.161Z,1011.07
2019-02-04T08:13:33.165Z,1011.08
2019-02-04T08:14:33.147Z,1011.05
2019-02-04T08:15:33.152Z,1011.06
2019-02-04T08:16:33.122Z,1011.04
2019-02-04T08:17:33.109Z,1011.03
2019-02-04T08:18:33.096Z,1010.99
2019-02-04T08:19:33.093Z,1011.05
2019-02-04T08:20:33.101Z,1011.02
2019-02-04T08:21:33.115Z,1011.01
2019-02-04T08:22:33.121Z,1010.98
2019-02-04T08:23:33.059Z,1011.00
2019-02-04T08:24:33.034Z,1010.99
2019-02-04T08:25:33.046Z,1011.06
2019-02-04T08:26:33.018Z,1011.01
2019-02-04T08:27:33.007Z,1011.04
2019-02-04T08:28:33.014Z,1011.09
2019-02-04T08:29:32.985Z,1011.10
2019-02-04T08:30:32.969Z,1011.09
2019-02-04T08:31:32.957Z,1011.16
2019-02-04T08:32:32.948Z,1011.14
2019-02-04T08:33:32.956Z,1011.12
2019-02-04T08:34:32.933Z,1011.19
2019-02-04T08:35:32.915Z,1011.22
2019-02-04T08:36:44.238Z,1011.26
2019-02-04T08:37:33.901Z,1011.26
2019-02-04T08:38:32.891Z,1011.26
2019-02-04T08:39:32.882Z,1011.26
2019-02-04T08:40:32.887Z,1011.26
2019-02-04T08:41:32.868Z,1011.34
2019-02-04T08:42:35.385Z,1011.30
2019-02-04T08:43:32.875Z,1011.33
2019-02-04T08:44:32.825Z,1011.34
2019-02-04T08:45:32.874Z,1011.32
2019-02-04T08:46:32.818Z,1011.29
2019-02-04T08:47:32.814Z,1011.25
2019-02-04T08:48:32.809Z,1011.27
2019-02-04T08:49:32.805Z,1011.28
2019-02-04T08:50:32.764Z,1011.29
2019-02-04T08:51:32.750Z,1011.27
2019-02-04T08:52:32.746Z,1011.26
2019-02-04T08:53:32.727Z,1011.24
2019-02-04T08:54:32.711Z,1011.26
2019-02-04T08:55:32.717Z,1011.22
2019-02-04T08:56:32.713Z,1011.22
2019-02-04T08:57:32.683Z,1011.23
2019-02-04T08:58:32.692Z,1011.26
2019-02-04T08:59:32.667Z,1011.21
2019-02-04T09:00:32.654Z,1011.22
2019-02-04T09:01:32.638Z,1011.21
2019-02-04T09:02:32.627Z,1011.16
2019-02-04T09:03:32.638Z,1011.13
2019-02-04T09:04:32.642Z,1011.11
2019-02-04T09:05:32.611Z,1011.12
2019-02-04T09:06:32.593Z,1011.06
2019-02-04T09:07:32.570Z,1011.06
2019-02-04T09:08:32.587Z,1011.04
2019-02-04T09:09:32.553Z,1011.02
2019-02-04T09:10:32.550Z,1010.96
2019-02-04T09:11:32.561Z,1010.96
2019-02-04T09:12:32.524Z,1010.94
2019-02-04T09:13:32.510Z,1010.89
2019-02-04T09:14:32.498Z,1010.83
2019-02-04T09:15:32.490Z,1010.86
2019-02-04T09:16:32.476Z,1010.82
2019-02-04T09:17:32.486Z,1010.70
2019-02-04T09:18:44.220Z,1010.72
2019-02-04T09:19:33.466Z,1010.76
2019-02-04T09:20:32.437Z,1010.75
2019-02-04T09:21:32.430Z,1010.73
2019-02-04T09:22:32.410Z,1010.70
2019-02-04T09:23:32.427Z,1010.68
2019-02-04T09:24:32.425Z,1010.59
2019-02-04T09:25:32.412Z,1010.58
2019-02-04T09:26:32.369Z,1010.63
2019-02-04T09:27:32.379Z,1010.60
2019-02-04T09:28:32.351Z,1010.61
2019-02-04T09:29:32.344Z,1010.66
2019-02-04T09:30:32.341Z,1010.62
2019-02-04T09:31:32.323Z,1010.62
2019-02-04T09:32:32.334Z,1010.64
2019-02-04T09:33:32.309Z,1010.60
2019-02-04T09:34:32.289Z,1010.68
2019-02-04T09:35:32.274Z,1010.62
2019-02-04T09:36:32.281Z,1010.57
2019-02-04T09:37:32.275Z,1010.62
2019-02-04T09:38:32.247Z,1010.64
2019-02-04T09:39:32.230Z,1010.64
2019-02-04T09:40:32.227Z,1010.73
2019-02-04T09:41:32.212Z,1010.73
2019-02-04T09:42:32.224Z,1010.65
2019-02-04T09:43:32.192Z,1010.66
2019-02-04T09:44:32.178Z,1010.70
2019-02-04T09:45:32.167Z,1010.64
2019-02-04T09:46:32.152Z,1010.67
2019-02-04T09:47:32.165Z,1010.68
2019-02-04T09:48:32.134Z,1010.70
2019-02-04T09:49:32.124Z,1010.67
2019-02-04T09:50:32.624Z,1010.67
2019-02-04T09:51:32.106Z,1010.69
2019-02-04T09:52:32.109Z,1010.70
2019-02-04T09:53:32.096Z,1010.60
2019-02-04T09:54:32.069Z,1010.72
2019-02-04T09:55:32.063Z,1010.61
2019-02-04T09:56:32.049Z,1010.66
2019-02-04T09:57:32.060Z,1010.60
2019-02-04T09:58:32.021Z,1010.60
2019-02-04T09:59:32.033Z,1010.62
2019-02-04T10:00:32.002Z,1010.57
2019-02-04T10:01:31.988Z,1010.59
2019-02-04T10:02:32.006Z,1010.65
2019-02-04T10:03:31.979Z,1010.63
2019-02-04T10:04:31.959Z,1010.61
2019-02-04T10:05:31.965Z,1010.63
2019-02-04T10:06:31.950Z,1010.62
2019-02-04T10:07:31.961Z,1010.57
2019-02-04T10:08:31.950Z,1010.63
2019-02-04T10:09:31.907Z,1010.64
2019-02-04T10:10:31.891Z,1010.58
2019-02-04T10:11:31.887Z,1010.59
2019-02-04T10:12:31.901Z,1010.57
2019-02-04T10:13:31.917Z,1010.52
2019-02-04T10:14:32.114Z,1010.55
2019-02-04T10:15:31.853Z,1010.56
2019-02-04T10:16:31.858Z,1010.56
2019-02-04T10:17:31.848Z,1010.60
2019-02-04T10:18:31.803Z,1010.57
2019-02-04T10:19:31.816Z,1010.60
2019-02-04T10:20:34.523Z,1010.61
2019-02-04T10:21:31.884Z,1010.61
2019-02-04T10:22:31.816Z,1010.63
2019-02-04T10:23:31.801Z,1010.64
2019-02-04T10:24:31.742Z,1010.59
2019-02-04T10:25:31.747Z,1010.60
2019-02-04T10:26:31.769Z,1010.63
2019-02-04T10:27:31.741Z,1010.59
2019-02-04T10:28:31.744Z,1010.51
2019-02-04T10:29:31.855Z,1010.58
2019-02-04T10:30:31.709Z,1010.65
2019-02-04T10:31:31.708Z,1010.57
2019-02-04T10:32:31.655Z,1010.65
2019-02-04T10:33:31.678Z,1010.56
2019-02-04T10:34:31.688Z,1010.56
2019-02-04T10:35:31.625Z,1010.58
2019-02-04T10:36:31.642Z,1010.61
2019-02-04T10:37:31.614Z,1010.57
2019-02-04T10:38:31.612Z,1010.63
2019-02-04T10:39:31.645Z,1010.58
2019-02-04T10:40:31.579Z,1010.64
2019-02-04T10:41:31.566Z,1010.63
2019-02-04T10:42:31.545Z,1010.58
2019-02-04T10:43:31.539Z,1010.51
2019-02-04T10:44:31.544Z,1010.49
2019-02-04T10:45:31.521Z,1010.50
2019-02-04T10:46:31.511Z,1010.51
2019-02-04T10:47:31.497Z,1010.48
2019-02-04T10:48:31.513Z,1010.52
2019-02-04T10:49:31.540Z,1010.48
2019-02-04T10:50:31.503Z,1010.44
2019-02-04T10:51:31.491Z,1010.49
2019-02-04T10:52:31.441Z,1010.44
2019-02-04T10:53:31.442Z,1010.50
2019-02-04T10:54:31.418Z,1010.41
2019-02-04T10:55:31.452Z,1010.41
2019-02-04T10:56:31.433Z,1010.40
2019-02-04T10:57:40.347Z,1010.45
2019-02-04T10:58:32.407Z,1010.34
2019-02-04T10:59:31.386Z,1010.40
2019-02-04T11:00:31.414Z,1010.38
2019-02-04T11:01:31.361Z,1010.35
2019-02-04T11:02:31.353Z,1010.37
2019-02-04T11:03:31.335Z,1010.31
2019-02-04T11:04:31.349Z,1010.35
2019-02-04T11:05:31.377Z,1010.34
2019-02-04T11:06:31.294Z,1010.29
2019-02-04T11:07:31.354Z,1010.36
2019-02-04T11:08:32.955Z,1010.26
2019-02-04T11:09:31.351Z,1010.31
2019-02-04T11:10:31.279Z,1010.27
2019-02-04T11:11:31.243Z,1010.19
2019-02-04T11:12:31.275Z,1010.28
2019-02-04T11:13:31.217Z,1010.28
2019-02-04T11:14:31.199Z,1010.22
2019-02-04T11:15:31.220Z,1010.22
2019-02-04T11:16:31.182Z,1010.24
2019-02-04T11:17:31.202Z,1010.26
2019-02-04T11:18:31.174Z,1010.20
2019-02-04T11:19:31.150Z,1010.19
2019-02-04T11:20:31.141Z,1010.21
2019-02-04T11:21:31.159Z,1010.16
2019-02-04T11:22:31.159Z,1010.21
2019-02-04T11:23:31.105Z,1010.14
2019-02-04T11:24:31.115Z,1010.08
2019-02-04T11:25:31.105Z,1010.15
2019-02-04T11:26:31.096Z,1010.14
2019-02-04T11:27:31.151Z,1010.20
2019-02-04T11:28:31.050Z,1010.12
2019-02-04T11:29:31.045Z,1010.17
2019-02-04T11:30:31.064Z,1010.18
2019-02-04T11:31:31.044Z,1010.13
2019-02-04T11:32:31.028Z,1010.15
2019-02-04T11:33:31.000Z,1010.14
2019-02-04T11:34:31.009Z,1010.01
2019-02-04T11:35:31.000Z,1010.12
2019-02-04T11:36:31.006Z,1010.04
2019-02-04T11:37:30.982Z,1010.06
2019-02-04T11:38:30.960Z,1010.05
2019-02-04T11:39:30.940Z,1009.94
2019-02-04T11:40:30.939Z,1010.03
2019-02-04T11:41:30.907Z,1010.08
2019-02-04T11:42:30.904Z,1009.93
2019-02-04T11:43:30.920Z,1010.00
2019-02-04T11:44:30.909Z,1009.99
2019-02-04T11:45:30.917Z,1009.97
2019-02-04T11:46:30.852Z,1010.02
2019-02-04T11:47:30.844Z,1010.06
2019-02-04T11:48:30.870Z,1010.07
2019-02-04T11:49:30.845Z,1010.00
2019-02-04T11:50:30.819Z,1010.04
2019-02-04T11:51:30.834Z,1009.97
2019-02-04T11:52:30.839Z,1009.93
2019-02-04T11:53:32.910Z,1009.97
2019-02-04T11:54:30.781Z,1009.97
2019-02-04T11:55:30.791Z,1009.94
2019-02-04T11:56:30.752Z,1009.91
2019-02-04T11:57:30.765Z,1009.93
2019-02-04T11:58:30.722Z,1009.92
2019-02-04T11:59:30.723Z,1009.94
2019-02-04T12:00:30.726Z,1009.94
2019-02-04T12:01:30.691Z,1009.85
2019-02-04T12:02:34.663Z,1009.82
2019-02-04T12:03:30.683Z,1009.83
2019-02-04T12:04:30.664Z,1009.78
2019-02-04T12:05:30.652Z,1009.78